createdAt,value
2018-12-07T00:00:18.286Z,0
2018-12-07T00:01:19.687Z,0
2018-12-07T00:02:20.582Z,0
2018-12-07T00:03:21.709Z,0
2018-12-07T00:04:22.187Z,0
2018-12-07T00:05:22.869Z,0
2018-12-07T00:06:24.109Z,0
2018-12-07T00:07:24.346Z,0
2018-12-07T00:08:25.303Z,0
2018-12-07T00:09:25.709Z,0
2018-12-07T00:10:26.947Z,0
2018-12-07T00:11:28.277Z,0
2018-12-07T00:12:28.645Z,0
2018-12-07T00:13:29.047Z,0
2018-12-07T00:14:29.728Z,0
2018-12-07T00:15:30.733Z,0
2018-12-07T00:16:31.767Z,0
2018-12-07T00:17:32.449Z,0
2018-12-07T00:18:33.153Z,0
2018-12-07T00:19:34.388Z,0
2018-12-07T00:20:35.066Z,0
2018-12-07T00:21:35.470Z,0
2018-12-07T00:22:37.397Z,0
2018-12-07T00:23:38.356Z,0
2018-12-07T00:24:38.476Z,0
2018-12-07T00:25:39.879Z,0
2018-12-07T00:26:40.632Z,0
2018-12-07T00:27:41.044Z,0
2018-12-07T00:28:42.274Z,0
2018-12-07T00:29:42.956Z,0
2018-12-07T00:30:44.081Z,0
2018-12-07T00:31:45.082Z,0
2018-12-07T00:32:45.191Z,0
2018-12-07T00:33:45.316Z,0
2018-12-07T00:34:46.446Z,0
2018-12-07T00:35:47.571Z,0
2018-12-07T00:36:48.973Z,0
2018-12-07T00:37:49.933Z,0
2018-12-07T00:38:50.058Z,0
2018-12-07T00:39:51.021Z,0
2018-12-07T00:40:51.422Z,0
2018-12-07T00:41:52.835Z,0
2018-12-07T00:42:53.644Z,0
2018-12-07T00:43:55.048Z,0
2018-12-07T00:44:55.455Z,0
2018-12-07T00:45:56.131Z,0
2018-12-07T00:46:56.259Z,0
2018-12-07T00:47:56.939Z,0
2018-12-07T00:48:57.980Z,0
2018-12-07T00:49:58.939Z,0
2018-12-07T00:50:59.143Z,0
2018-12-07T00:51:59.547Z,0
2018-12-07T00:52:59.805Z,0
2018-12-07T00:54:00.546Z,0
2018-12-07T00:55:00.947Z,0
2018-12-07T00:56:01.355Z,0
2018-12-07T00:57:01.757Z,0
2018-12-07T00:58:02.440Z,0
2018-12-07T00:59:03.404Z,0
2018-12-07T01:00:04.366Z,0
2018-12-07T01:01:05.046Z,0
2018-12-07T01:02:06.450Z,0
2018-12-07T01:03:06.526Z,0
2018-12-07T01:04:07.214Z,0
2018-12-07T01:05:08.449Z,0
2018-12-07T01:06:09.129Z,0
2018-12-07T01:07:09.860Z,0
2018-12-07T01:08:10.263Z,0
2018-12-07T01:09:10.667Z,0
2018-12-07T01:10:11.072Z,0
2018-12-07T06:53:49.440Z,68
2018-12-07T06:54:49.907Z,80
2018-12-07T06:55:51.596Z,84
2018-12-07T06:56:52.074Z,96
2018-12-07T06:57:52.775Z,112
2018-12-07T06:58:53.184Z,120
2018-12-07T06:59:54.901Z,136
2018-12-07T07:00:55.868Z,148
2018-12-07T07:01:56.652Z,160
2018-12-07T07:02:56.625Z,172
2018-12-07T07:03:58.015Z,184
2018-12-07T07:04:57.434Z,200
2018-12-07T07:05:58.848Z,212
2018-12-07T07:06:58.680Z,228
2018-12-07T07:08:06.540Z,252
2018-12-07T07:08:11.889Z,252
2018-12-07T07:09:12.042Z,268
2018-12-07T07:10:13.157Z,284
2018-12-07T07:11:13.945Z,304
2018-12-07T07:12:14.926Z,328
2018-12-07T07:13:15.612Z,344
2018-12-07T07:14:22.108Z,348
2018-12-07T07:14:31.594Z,344
2018-12-07T07:15:28.835Z,344
2018-12-07T07:16:30.087Z,344
2018-12-07T07:17:30.590Z,348
2018-12-07T07:18:30.878Z,352
2018-12-07T07:19:31.292Z,360
2018-12-07T07:20:31.986Z,364
2018-12-07T07:21:32.991Z,368
2018-12-07T07:22:33.679Z,372
2018-12-07T07:23:34.369Z,388
2018-12-07T07:24:35.339Z,396
2018-12-07T07:25:35.178Z,404
2018-12-07T07:26:36.703Z,416
2018-12-07T07:27:37.396Z,428
2018-12-07T07:28:38.085Z,440
2018-12-07T07:29:39.342Z,452
2018-12-07T07:30:40.031Z,452
2018-12-07T07:31:45.507Z,448
2018-12-07T07:32:45.642Z,448
2018-12-07T07:33:46.366Z,456
2018-12-07T07:34:46.777Z,460
2018-12-07T07:35:48.725Z,464
2018-12-07T07:36:48.138Z,468
2018-12-07T07:37:48.890Z,472
2018-12-07T07:38:49.543Z,476
2018-12-07T07:39:49.955Z,472
2018-12-07T07:42:35.294Z,500
2018-12-07T07:43:36.712Z,516
2018-12-07T07:44:37.960Z,532
2018-12-07T07:45:38.658Z,548
2018-12-07T07:46:39.634Z,556
2018-12-07T07:47:40.671Z,556
2018-12-07T07:48:41.196Z,564
2018-12-07T07:49:41.889Z,576
2018-12-07T07:50:42.394Z,592
2018-12-07T07:51:43.088Z,612
2018-12-07T07:52:44.042Z,628
2018-12-07T07:53:45.015Z,640
2018-12-07T07:54:45.431Z,652
2018-12-07T07:55:46.570Z,660
2018-12-07T07:56:46.987Z,680
2018-12-07T07:57:48.238Z,696
2018-12-07T07:58:48.380Z,712
2018-12-07T07:59:48.797Z,736
2018-12-07T08:00:50.696Z,756
2018-12-07T08:01:50.588Z,776
2018-12-07T08:02:50.715Z,808
2018-12-07T08:03:51.682Z,820
2018-12-07T08:04:52.112Z,820
2018-12-07T08:05:53.084Z,812
2018-12-07T08:06:53.499Z,816
2018-12-07T08:07:53.643Z,852
2018-12-07T08:08:53.871Z,884
2018-12-07T08:09:55.008Z,884
2018-12-07T08:10:55.711Z,860
2018-12-07T08:11:56.126Z,816
2018-12-07T08:12:56.698Z,780
2018-12-07T08:13:57.038Z,760
2018-12-07T08:14:57.455Z,752
2018-12-07T08:15:58.430Z,756
2018-12-07T08:16:58.850Z,788
2018-12-07T08:17:59.991Z,820
2018-12-07T08:19:01.413Z,856
2018-12-07T08:20:01.822Z,924
2018-12-07T08:21:02.514Z,1016
2018-12-07T08:22:04.611Z,1136
2018-12-07T08:23:06.120Z,1212
2018-12-07T08:24:06.302Z,1228
2018-12-07T08:25:07.550Z,1200
2018-12-07T08:26:07.687Z,1172
2018-12-07T08:27:09.106Z,1156
2018-12-07T08:28:09.802Z,1148
2018-12-07T08:29:10.502Z,1140
2018-12-07T08:30:10.932Z,1112
2018-12-07T08:31:12.345Z,1076
2018-12-07T08:32:13.597Z,1052
2018-12-07T08:33:13.146Z,1044
2018-12-07T08:34:14.298Z,1040
2018-12-07T08:35:14.996Z,1040
2018-12-07T08:36:15.692Z,1036
2018-12-07T08:37:16.387Z,1028
2018-12-07T08:38:17.080Z,1016
2018-12-07T08:39:18.053Z,1024
2018-12-07T08:40:18.473Z,1024
2018-12-07T08:41:19.499Z,1028
2018-12-07T08:42:20.639Z,1040
2018-12-07T08:43:21.483Z,1056
2018-12-07T08:44:22.761Z,1096
2018-12-07T08:45:24.021Z,1140
2018-12-07T08:46:24.999Z,1184
2018-12-07T08:47:25.417Z,1224
2018-12-07T08:50:27.638Z,1388
2018-12-07T08:51:27.312Z,1468
2018-12-07T08:52:28.730Z,1532
2018-12-07T08:53:29.416Z,1552
2018-12-07T08:54:30.114Z,1560
2018-12-07T08:55:30.801Z,1576
2018-12-07T08:56:31.859Z,1600
2018-12-07T08:57:32.540Z,1648
2018-12-07T08:58:33.315Z,1704
2018-12-07T08:59:34.283Z,1800
2018-12-07T09:00:34.679Z,1944
2018-12-07T09:01:35.641Z,2104
2018-12-07T09:04:50.285Z,2316
2018-12-07T09:05:50.691Z,2320
2018-12-07T09:06:51.658Z,2320
2018-12-07T09:07:52.700Z,2284
2018-12-07T09:08:53.657Z,2196
2018-12-07T09:09:54.343Z,2100
2018-12-07T09:10:55.752Z,2064
2018-12-07T09:11:56.715Z,2044
2018-12-07T09:12:56.400Z,2024
2018-12-07T09:13:57.503Z,1972
2018-12-07T09:14:57.910Z,1884
2018-12-07T09:15:59.038Z,1800
2018-12-07T09:16:59.447Z,1744
2018-12-07T09:18:00.679Z,1692
2018-12-07T09:19:01.386Z,1648
2018-12-07T09:20:02.908Z,1652
2018-12-07T09:21:04.159Z,1648
2018-12-07T09:22:03.789Z,1636
2018-12-07T09:23:04.333Z,1632
2018-12-07T09:24:04.629Z,1648
2018-12-07T09:25:10.789Z,1656
2018-12-07T09:25:19.657Z,1660
2018-12-07T09:26:17.796Z,1692
2018-12-07T09:27:18.483Z,1724
2018-12-07T09:28:19.170Z,1752
2018-12-07T09:29:20.137Z,1776
2018-12-07T09:30:20.372Z,1804
2018-12-07T09:31:21.119Z,1804
2018-12-07T09:32:21.804Z,1752
2018-12-07T09:33:22.376Z,1712
2018-12-07T09:34:23.338Z,1688
2018-12-07T09:35:24.022Z,1724
2018-12-07T09:36:25.127Z,1756
2018-12-07T09:37:26.133Z,1756
2018-12-07T09:38:27.645Z,1780
2018-12-07T09:39:27.330Z,1832
2018-12-07T09:40:27.463Z,1920
2018-12-07T09:41:28.443Z,2036
2018-12-07T09:42:28.695Z,2160
2018-12-07T09:43:29.382Z,2256
2018-12-07T09:44:34.113Z,2308
2018-12-07T09:45:36.346Z,2312
2018-12-07T09:45:43.661Z,2312
2018-12-07T09:46:47.976Z,2320
2018-12-07T09:47:46.055Z,2292
2018-12-07T09:48:46.738Z,2168
2018-12-07T09:49:47.712Z,1992
2018-12-07T09:50:48.392Z,1860
2018-12-07T09:51:48.538Z,1776
2018-12-07T09:52:49.233Z,1744
2018-12-07T09:53:50.403Z,1744
2018-12-07T09:54:51.089Z,1732
2018-12-07T09:55:51.506Z,1724
2018-12-07T09:56:52.614Z,1700
2018-12-07T09:57:53.670Z,1664
2018-12-07T09:58:54.635Z,1636
2018-12-07T09:59:55.601Z,1632
2018-12-07T10:00:56.005Z,1624
2018-12-07T10:01:56.138Z,1636
2018-12-07T10:02:57.105Z,1652
2018-12-07T10:03:58.346Z,1680
2018-12-07T10:04:59.042Z,1720
2018-12-07T10:05:59.728Z,1788
2018-12-07T10:06:59.880Z,1832
2018-12-07T10:08:00.873Z,1860
2018-12-07T10:09:02.404Z,1880
2018-12-07T10:10:01.884Z,1916
2018-12-07T10:11:02.582Z,1944
2018-12-07T10:12:03.549Z,1944
2018-12-07T10:13:09.695Z,1940
2018-12-07T10:13:16.020Z,1940
2018-12-07T10:14:16.942Z,1956
2018-12-07T10:15:17.354Z,1988
2018-12-07T10:16:18.035Z,2032
2018-12-07T10:17:18.722Z,2080
2018-12-07T10:18:19.409Z,2108
2018-12-07T10:19:20.253Z,2104
2018-12-07T10:20:21.193Z,2072
2018-12-07T10:21:20.605Z,2008
2018-12-07T10:22:21.572Z,1952
2018-12-07T10:23:21.702Z,1912
2018-12-07T10:24:23.105Z,1884
2018-12-07T10:25:27.037Z,1876
2018-12-07T10:26:26.168Z,1892
2018-12-07T10:27:27.132Z,1932
2018-12-07T10:28:27.821Z,1968
2018-12-07T10:29:28.258Z,2004
2018-12-07T10:30:29.224Z,2056
2018-12-07T10:31:35.197Z,2084
2018-12-07T10:31:43.394Z,2088
2018-12-07T10:32:42.588Z,2112
2018-12-07T10:33:43.000Z,2136
2018-12-07T10:34:44.125Z,2148
2018-12-07T10:35:45.547Z,2160
2018-12-07T10:36:46.240Z,2160
2018-12-07T10:37:47.200Z,2160
2018-12-07T10:38:47.331Z,2156
2018-12-07T10:39:48.018Z,2152
2018-12-07T10:40:48.429Z,2144
2018-12-07T10:41:49.400Z,2128
2018-12-07T10:42:49.688Z,2108
2018-12-07T10:43:50.165Z,2104
2018-12-07T10:44:50.576Z,2112
2018-12-07T10:45:51.006Z,2116
2018-12-07T10:46:51.973Z,2156
2018-12-07T10:47:52.103Z,2300
2018-12-07T10:48:53.237Z,2536
2018-12-07T10:49:54.364Z,2792
2018-12-07T10:50:55.611Z,3048
2018-12-07T10:51:56.118Z,3324
2018-12-07T10:52:56.191Z,3592
2018-12-07T10:53:57.332Z,3876
2018-12-07T10:54:57.769Z,4104
2018-12-07T10:55:58.315Z,4284
2018-12-07T10:57:00.407Z,4436
2018-12-07T10:58:00.226Z,4348
2018-12-07T10:59:01.450Z,4248
2018-12-07T11:00:01.410Z,4324
2018-12-07T11:01:01.555Z,4612
2018-12-07T11:02:03.525Z,4976
2018-12-07T11:03:02.891Z,5088
2018-12-07T11:04:04.262Z,5396
2018-12-07T11:05:04.433Z,6112
2018-12-07T11:06:04.899Z,6844
2018-12-07T11:07:06.385Z,7328
2018-12-07T11:08:07.094Z,7336
2018-12-07T11:09:07.625Z,7076
2018-12-07T11:10:07.973Z,7036
2018-12-07T11:11:08.121Z,6892
2018-12-07T11:12:08.254Z,6460
2018-12-07T11:13:10.287Z,5896
2018-12-07T11:14:09.701Z,5156
2018-12-07T11:15:10.391Z,4620
2018-12-07T11:16:10.800Z,4272
2018-12-07T11:17:11.485Z,3984
2018-12-07T11:18:11.923Z,3788
2018-12-07T11:19:12.609Z,3640
2018-12-07T11:20:12.988Z,3552
2018-12-07T11:21:14.269Z,3528
2018-12-07T11:22:13.683Z,3540
2018-12-07T11:23:14.306Z,3608
2018-12-07T11:24:15.832Z,3624
2018-12-07T11:25:15.601Z,3624
2018-12-07T11:26:16.312Z,3620
2018-12-07T11:27:16.082Z,3584
2018-12-07T11:28:17.218Z,3608
2018-12-07T11:29:18.468Z,3680
2018-12-07T11:30:18.877Z,3672
2018-12-07T11:31:20.005Z,3660
2018-12-07T11:32:21.429Z,3720
2018-12-07T11:33:22.308Z,3836
2018-12-07T11:34:22.715Z,3968
2018-12-07T11:35:23.695Z,4124
2018-12-07T11:36:23.855Z,4308
2018-12-07T11:37:24.292Z,4500
2018-12-07T11:38:25.700Z,4676
2018-12-07T11:39:26.952Z,4556
2018-12-07T11:40:28.648Z,4268
2018-12-07T11:41:27.146Z,4032
2018-12-07T11:42:27.841Z,3944
2018-12-07T11:43:28.649Z,4012
2018-12-07T11:44:29.654Z,4192
2018-12-07T11:45:30.061Z,4488
2018-12-07T11:46:30.475Z,4860
2018-12-07T11:47:31.604Z,5264
2018-12-07T11:48:32.290Z,5960
2018-12-07T11:49:32.978Z,6356
2018-12-07T11:50:33.974Z,6832
2018-12-07T11:51:34.941Z,6152
2018-12-07T11:52:41.100Z,6104
2018-12-07T11:52:48.879Z,6140
2018-12-07T11:53:49.816Z,6284
2018-12-07T11:54:49.864Z,6268
2018-12-07T11:55:50.006Z,6320
2018-12-07T11:56:51.731Z,6460
2018-12-07T11:57:51.866Z,6048
2018-12-07T11:58:53.560Z,5572
2018-12-07T11:59:53.974Z,5200
2018-12-07T12:00:55.666Z,4924
2018-12-07T12:01:55.800Z,4796
2018-12-07T12:02:56.217Z,4660
2018-12-07T12:03:57.327Z,4456
2018-12-07T12:04:57.470Z,4240
2018-12-07T12:05:58.246Z,4156
2018-12-07T12:06:58.225Z,4156
2018-12-07T12:07:59.015Z,4188
2018-12-07T12:08:59.490Z,4132
2018-12-07T12:10:00.599Z,4028
2018-12-07T12:11:00.609Z,3824
2018-12-07T12:12:02.656Z,3628
2018-12-07T12:13:02.349Z,3424
2018-12-07T12:14:02.770Z,3324
2018-12-07T12:15:03.456Z,3284
2018-12-07T12:16:03.870Z,3256
2018-12-07T12:17:03.982Z,3272
2018-12-07T12:18:05.676Z,3288
2018-12-07T12:19:05.725Z,3316
2018-12-07T12:20:06.205Z,3308
2018-12-07T12:21:07.613Z,3356
2018-12-07T12:22:09.320Z,3292
2018-12-07T12:23:10.521Z,3192
2018-12-07T12:24:11.626Z,3084
2018-12-07T12:25:12.317Z,2972
2018-12-07T12:26:13.558Z,2828
2018-12-07T12:27:13.967Z,2644
2018-12-07T12:28:14.942Z,2440
2018-12-07T12:29:15.416Z,2288
2018-12-07T12:30:15.646Z,2224
2018-12-07T12:31:16.688Z,2236
2018-12-07T12:32:17.214Z,2344
2018-12-07T12:33:17.181Z,2244
2018-12-07T12:34:17.727Z,2168
2018-12-07T12:35:18.025Z,2104
2018-12-07T12:36:19.368Z,2052
2018-12-07T12:37:19.804Z,2052
2018-12-07T12:38:20.333Z,2120
2018-12-07T12:39:21.302Z,2200
2018-12-07T12:40:20.994Z,2276
2018-12-07T12:41:23.798Z,2368
2018-12-07T12:42:25.616Z,2508
2018-12-07T12:43:25.820Z,2640
2018-12-07T12:44:25.979Z,2728
2018-12-07T12:45:27.001Z,2768
2018-12-07T12:46:28.335Z,2808
2018-12-07T12:47:28.872Z,2880
2018-12-07T12:48:30.089Z,3180
2018-12-07T12:49:30.503Z,3144
2018-12-07T12:50:31.918Z,3184
2018-12-07T12:51:33.261Z,3268
2018-12-07T12:52:33.542Z,3984
2018-12-07T12:53:34.681Z,4844
2018-12-07T12:54:36.058Z,7844
2018-12-07T12:55:37.118Z,4228
2018-12-07T12:56:37.000Z,3700
2018-12-07T12:57:37.413Z,3524
2018-12-07T12:58:38.110Z,3336
2018-12-07T12:59:38.250Z,3068
2018-12-07T13:00:39.795Z,2972
2018-12-07T13:01:40.619Z,2960
2018-12-07T13:02:41.933Z,2924
2018-12-07T13:03:42.485Z,2852
2018-12-07T13:04:42.877Z,2780
2018-12-07T13:05:45.384Z,2752
2018-12-07T13:06:46.943Z,2656
2018-12-07T13:07:47.634Z,2512
2018-12-07T13:08:48.043Z,2360
2018-12-07T13:09:49.175Z,2216
2018-12-07T13:10:49.650Z,2112
2018-12-07T13:11:50.613Z,2084
2018-12-07T13:12:51.325Z,2144
2018-12-07T13:13:51.926Z,2208
2018-12-07T13:14:53.353Z,2244
2018-12-07T13:15:54.354Z,2256
2018-12-07T13:16:55.042Z,2264
2018-12-07T13:17:55.250Z,2268
2018-12-07T13:18:57.016Z,2328
2018-12-07T13:19:57.154Z,2456
2018-12-07T13:20:57.889Z,2628
2018-12-07T13:21:58.058Z,2868
2018-12-07T13:22:58.839Z,3016
2018-12-07T13:24:00.407Z,3316
2018-12-07T13:25:01.595Z,10104
2018-12-07T13:26:02.845Z,12880
2018-12-07T13:27:03.278Z,11400
2018-12-07T13:28:03.934Z,15552
2018-12-07T13:29:04.900Z,17728
2018-12-07T13:30:05.323Z,7920
2018-12-07T13:31:06.154Z,8116
2018-12-07T13:32:06.873Z,12628
2018-12-07T13:33:07.019Z,5000
2018-12-07T13:34:08.416Z,4280
2018-12-07T13:35:08.373Z,6520
2018-12-07T13:36:08.798Z,6912
2018-12-07T13:37:10.535Z,7480
2018-12-07T13:38:10.944Z,7128
2018-12-07T13:39:11.940Z,7264
2018-12-07T13:40:14.549Z,3612
2018-12-07T13:41:16.278Z,3200
2018-12-07T13:42:18.375Z,3136
2018-12-07T13:42:33.448Z,3100
2018-12-07T13:42:41.865Z,3168
2018-12-07T13:43:41.761Z,3384
2018-12-07T13:44:42.217Z,2676
2018-12-07T13:45:43.647Z,2596
2018-12-07T13:46:44.700Z,2620
2018-12-07T13:47:45.669Z,2604
2018-12-07T13:48:46.459Z,2604
2018-12-07T13:49:47.280Z,2440
2018-12-07T13:50:47.511Z,2396
2018-12-07T13:51:47.350Z,2388
2018-12-07T13:52:48.147Z,2428
2018-12-07T13:53:48.403Z,2476
2018-12-07T13:54:49.668Z,2456
2018-12-07T13:55:51.031Z,2524
2018-12-07T13:56:52.058Z,2540
2018-12-07T13:57:53.071Z,2880
2018-12-07T13:58:53.773Z,3896
2018-12-07T13:59:54.453Z,2500
2018-12-07T14:00:55.235Z,2304
2018-12-07T14:01:57.689Z,2216
2018-12-07T14:02:57.154Z,2144
2018-12-07T14:03:57.521Z,2128
2018-12-07T14:05:01.554Z,2160
2018-12-07T14:06:00.561Z,2176
2018-12-07T14:07:02.002Z,2384
2018-12-07T14:08:02.722Z,3724
2018-12-07T14:09:04.072Z,5036
2018-12-07T14:10:05.395Z,3612
2018-12-07T14:11:05.959Z,1864
2018-12-07T14:12:07.038Z,1700
2018-12-07T14:13:07.430Z,1616
2018-12-07T14:14:09.250Z,1560
2018-12-07T14:15:09.673Z,1520
2018-12-07T14:16:10.536Z,1508
2018-12-07T14:17:11.424Z,1480
2018-12-07T14:18:11.313Z,1416
2018-12-07T14:19:13.399Z,1376
2018-12-07T14:20:13.606Z,1332
2018-12-07T14:21:14.539Z,1292
2018-12-07T14:22:15.157Z,1240
2018-12-07T14:23:16.491Z,1208
2018-12-07T14:24:17.737Z,1180
2018-12-07T14:25:17.998Z,1164
2018-12-07T14:26:18.903Z,1140
2018-12-07T14:27:21.350Z,1132
2018-12-07T14:28:21.231Z,1088
2018-12-07T14:29:20.765Z,1012
2018-12-07T14:30:23.183Z,940
2018-12-07T14:31:23.187Z,908
2018-12-07T14:32:24.378Z,852
2018-12-07T14:33:24.163Z,812
2018-12-07T14:34:26.054Z,792
2018-12-07T14:35:26.035Z,752
2018-12-07T14:36:26.463Z,696
2018-12-07T14:37:27.793Z,656
2018-12-07T14:38:28.344Z,644
2018-12-07T14:39:29.993Z,628
2018-12-07T14:40:36.229Z,596
2018-12-07T14:40:44.406Z,588
2018-12-07T14:41:41.958Z,560
2018-12-07T14:42:43.496Z,536
2018-12-07T14:43:44.456Z,500
2018-12-07T14:44:44.136Z,460
2018-12-07T14:45:45.326Z,416
2018-12-07T14:46:46.416Z,376
2018-12-07T14:47:49.741Z,344
2018-12-07T14:48:48.486Z,312
2018-12-07T14:49:50.026Z,284
2018-12-07T14:50:54.091Z,248
2018-12-07T14:51:02.431Z,248
2018-12-07T14:52:03.713Z,220
2018-12-07T14:53:03.019Z,200
2018-12-07T14:54:04.551Z,188
2018-12-07T14:55:05.902Z,176
2018-12-07T14:56:06.219Z,168
2018-12-07T14:57:06.752Z,168
2018-12-07T14:58:07.422Z,176
2018-12-07T14:59:08.772Z,180
2018-12-07T15:00:08.246Z,184
2018-12-07T15:01:10.349Z,188
2018-12-07T15:02:11.557Z,188
2018-12-07T15:03:12.341Z,180
2018-12-07T15:04:12.747Z,176
2018-12-07T15:05:12.883Z,168
2018-12-07T15:06:15.068Z,168
2018-12-07T15:07:15.659Z,168
2018-12-07T15:08:16.687Z,176
2018-12-07T15:09:18.791Z,180
2018-12-07T15:10:19.954Z,176
2018-12-07T15:11:20.095Z,172
2018-12-07T15:12:21.625Z,168
2018-12-07T15:13:21.780Z,160
2018-12-07T15:14:23.294Z,152
2018-12-07T15:15:24.327Z,140
2018-12-07T15:16:25.245Z,136
2018-12-07T15:17:26.531Z,132
2018-12-07T15:18:28.462Z,128
2018-12-07T15:19:28.644Z,124
2018-12-07T15:20:32.154Z,120
2018-12-07T15:21:30.570Z,116
2018-12-07T15:22:31.731Z,112
2018-12-07T15:23:33.134Z,104
2018-12-07T15:24:34.290Z,92
2018-12-07T15:25:34.145Z,84
2018-12-07T15:26:35.762Z,76
2018-12-07T15:27:36.371Z,64
2018-12-07T15:28:37.662Z,52
2018-12-07T15:29:38.353Z,44
2018-12-07T15:30:39.781Z,36
2018-12-07T15:31:39.868Z,28
2018-12-07T15:32:39.814Z,28
2018-12-07T15:33:40.754Z,20
2018-12-07T15:34:41.974Z,20
2018-12-07T15:35:43.499Z,20
2018-12-07T15:36:44.038Z,16
2018-12-07T15:37:45.271Z,20
2018-12-07T15:38:45.266Z,16
2018-12-07T15:39:47.086Z,16
2018-12-07T15:40:48.179Z,16
2018-12-07T15:41:49.312Z,12
2018-12-07T15:42:49.983Z,8
2018-12-07T15:43:50.575Z,12
2018-12-07T15:44:51.634Z,12
2018-12-07T15:45:51.437Z,8
2018-12-07T15:46:51.899Z,4
2018-12-07T15:47:52.901Z,4
2018-12-07T15:48:53.161Z,4
2018-12-07T15:49:53.958Z,4
2018-12-07T15:50:54.841Z,4
2018-12-07T15:51:56.829Z,0
2018-12-07T15:52:58.063Z,4
2018-12-07T15:53:58.712Z,4
2018-12-07T15:54:59.982Z,0
2018-12-07T15:55:59.996Z,0
2018-12-07T15:57:00.869Z,4
2018-12-07T15:58:01.732Z,4
2018-12-07T15:59:01.741Z,4
2018-12-07T16:00:02.406Z,0
2018-12-07T16:01:04.433Z,0
2018-12-07T16:02:05.613Z,0
2018-12-07T16:03:06.332Z,0
2018-12-07T16:04:06.230Z,0
2018-12-07T16:05:08.364Z,0
2018-12-07T16:06:09.794Z,0
2018-12-07T16:07:10.334Z,0
2018-12-07T16:08:11.053Z,0
2018-12-07T16:09:12.286Z,0
2018-12-07T16:10:15.013Z,0
2018-12-07T16:11:15.169Z,0
2018-12-07T16:12:15.903Z,0
2018-12-07T16:13:16.982Z,0
2018-12-07T16:14:17.369Z,0
2018-12-07T16:15:18.632Z,0
2018-12-07T16:16:19.713Z,0
2018-12-07T16:17:20.582Z,0
2018-12-07T16:18:21.231Z,0
2018-12-07T16:19:21.869Z,0
2018-12-07T16:20:22.889Z,0
2018-12-07T16:21:23.683Z,0
2018-12-07T16:22:24.967Z,0
2018-12-07T16:23:11.780Z,0
2018-12-07T16:24:12.776Z,0
2018-12-07T16:25:13.605Z,0
2018-12-07T16:26:14.205Z,0
2018-12-07T16:27:14.845Z,0
2018-12-07T16:28:15.147Z,0
2018-12-07T16:29:15.847Z,0
2018-12-07T16:30:16.866Z,0
2018-12-07T16:31:18.063Z,0
2018-12-07T16:32:19.806Z,0
2018-12-07T16:33:18.959Z,0
2018-12-07T16:34:20.177Z,0
2018-12-07T16:35:21.319Z,0
2018-12-07T16:36:21.895Z,0
2018-12-07T16:37:23.247Z,0
2018-12-07T16:38:23.128Z,0
2018-12-07T16:39:24.515Z,0
2018-12-07T16:40:24.940Z,0
2018-12-07T16:41:25.300Z,0
2018-12-07T16:42:25.517Z,0
2018-12-07T16:43:27.613Z,0
2018-12-07T16:44:26.178Z,0
2018-12-07T16:45:28.121Z,0
2018-12-07T16:46:29.241Z,0
2018-12-07T16:47:32.928Z,0
2018-12-07T16:47:42.945Z,0
2018-12-07T16:48:44.248Z,0
2018-12-07T16:49:44.516Z,0
2018-12-07T16:50:45.367Z,0
2018-12-07T16:51:46.322Z,0
2018-12-07T16:52:46.934Z,0
2018-12-07T16:53:48.471Z,0
2018-12-07T16:54:48.427Z,0
2018-12-07T16:55:48.721Z,0
2018-12-07T16:56:50.184Z,0
2018-12-07T16:57:50.760Z,0
2018-12-07T16:58:51.893Z,0
2018-12-07T16:59:54.618Z,0
2018-12-07T17:00:54.473Z,0
2018-12-07T17:01:54.811Z,0
2018-12-07T17:02:55.092Z,0
2018-12-07T17:03:55.783Z,0
2018-12-07T17:04:56.913Z,0
2018-12-07T17:05:57.666Z,0
2018-12-07T17:06:59.559Z,0
2018-12-07T17:08:00.366Z,0
2018-12-07T17:08:59.898Z,0
2018-12-07T17:10:01.688Z,0
2018-12-07T17:11:02.006Z,0
2018-12-07T17:12:03.240Z,0
2018-12-07T17:13:03.501Z,0
2018-12-07T17:14:04.145Z,0
2018-12-07T17:15:05.980Z,0
2018-12-07T17:16:07.399Z,0
2018-12-07T17:17:08.556Z,0
2018-12-07T17:18:08.695Z,0
2018-12-07T17:19:10.718Z,0
2018-12-07T17:20:11.327Z,0
2018-12-07T17:21:13.273Z,0
2018-12-07T17:22:14.244Z,0
2018-12-07T17:23:15.113Z,0
2018-12-07T17:24:15.457Z,0
2018-12-07T17:25:16.973Z,0
2018-12-07T17:26:18.423Z,0
2018-12-07T17:27:19.247Z,0
2018-12-07T17:28:20.854Z,0
2018-12-07T17:29:20.332Z,0
2018-12-07T17:30:22.320Z,0
2018-12-07T17:31:21.477Z,0
2018-12-07T17:32:23.923Z,0
2018-12-07T17:33:24.141Z,0
2018-12-07T17:34:24.625Z,0
2018-12-07T17:35:24.028Z,0
2018-12-07T17:36:27.832Z,0
2018-12-07T17:37:26.361Z,0
2018-12-07T17:38:28.556Z,0
2018-12-07T17:39:28.999Z,0
2018-12-07T17:40:27.815Z,0
2018-12-07T17:41:28.358Z,0
2018-12-07T17:42:33.019Z,0
2018-12-07T17:43:34.335Z,0
2018-12-07T17:44:35.801Z,0
2018-12-07T17:45:35.587Z,0
2018-12-07T17:46:36.672Z,0
2018-12-07T17:47:36.185Z,0
2018-12-07T17:48:39.157Z,0
2018-12-07T17:49:39.802Z,0
2018-12-07T17:50:40.427Z,0
2018-12-07T17:51:41.535Z,0
2018-12-07T17:52:42.013Z,0
2018-12-07T17:53:43.035Z,0
2018-12-07T17:54:44.161Z,0
2018-12-07T17:55:45.600Z,0
2018-12-07T17:56:45.809Z,0
2018-12-07T17:57:47.007Z,0
2018-12-07T17:58:47.703Z,0
2018-12-07T17:59:48.446Z,0
2018-12-07T18:00:49.656Z,0
2018-12-07T18:01:49.366Z,0
2018-12-07T18:02:49.490Z,0
2018-12-07T18:03:50.172Z,0
2018-12-07T18:04:51.470Z,0
2018-12-07T18:05:53.981Z,0
2018-12-07T18:06:54.552Z,0
2018-12-07T18:07:55.525Z,0
2018-12-07T18:08:56.302Z,0
2018-12-07T18:09:57.874Z,0
2018-12-07T18:10:58.322Z,0
2018-12-07T18:11:59.993Z,0
2018-12-07T18:13:00.817Z,0
2018-12-07T18:14:00.461Z,0
2018-12-07T18:15:02.823Z,0
2018-12-07T18:16:03.095Z,0
2018-12-07T18:17:04.454Z,0
2018-12-07T18:18:05.927Z,0
2018-12-07T18:19:07.822Z,0
2018-12-07T18:20:07.916Z,0
2018-12-07T18:21:07.577Z,0
2018-12-07T18:22:22.093Z,0
2018-12-07T18:23:22.279Z,0
2018-12-07T18:24:24.062Z,0
2018-12-07T18:25:24.915Z,0
2018-12-07T18:26:24.003Z,0
2018-12-07T18:27:25.522Z,0
2018-12-07T18:28:26.686Z,0
2018-12-07T18:29:26.767Z,0
2018-12-07T18:30:27.749Z,0
2018-12-07T18:31:28.592Z,0
2018-12-07T18:32:30.366Z,0
2018-12-07T18:33:29.818Z,0
2018-12-07T18:34:31.718Z,0
2018-12-07T18:35:31.248Z,0
2018-12-07T18:36:33.061Z,0
2018-12-07T18:37:33.445Z,0
2018-12-07T18:38:34.001Z,0
2018-12-07T18:39:34.928Z,0
2018-12-07T18:40:34.308Z,0
2018-12-07T18:41:36.432Z,0
2018-12-07T18:42:37.301Z,0
2018-12-07T18:43:38.134Z,0
2018-12-07T18:44:40.132Z,0
2018-12-07T18:45:41.888Z,0
2018-12-07T18:46:41.976Z,0
2018-12-07T18:47:42.013Z,0
2018-12-07T18:48:44.363Z,0
2018-12-07T18:49:46.143Z,0
2018-12-07T18:50:46.847Z,0
2018-12-07T18:51:47.334Z,0
2018-12-07T18:52:47.798Z,0
2018-12-07T18:53:48.912Z,0
2018-12-07T18:54:50.359Z,0
2018-12-07T18:55:52.552Z,0
2018-12-07T18:56:53.166Z,0
2018-12-07T18:57:54.344Z,0
2018-12-07T18:58:55.721Z,0
2018-12-07T18:59:56.543Z,0
2018-12-07T19:00:57.263Z,0
2018-12-07T19:01:58.620Z,0
2018-12-07T19:03:00.070Z,0
2018-12-07T19:04:00.905Z,0
2018-12-07T19:05:02.346Z,0
2018-12-07T19:06:02.555Z,0
2018-12-07T19:07:03.397Z,0
2018-12-07T19:08:04.278Z,0
2018-12-07T19:09:05.393Z,0
2018-12-07T19:10:06.084Z,0
2018-12-07T19:11:06.961Z,0
2018-12-07T19:12:08.838Z,0
2018-12-07T19:13:08.233Z,0
2018-12-07T19:14:09.778Z,0
2018-12-07T19:15:10.667Z,0
2018-12-07T19:16:10.841Z,0
2018-12-07T19:17:12.444Z,0
2018-12-07T19:18:12.816Z,0
2018-12-07T19:19:14.168Z,0
2018-12-07T19:20:14.859Z,0
2018-12-07T19:21:15.407Z,0
2018-12-07T19:22:16.012Z,0
2018-12-07T19:23:17.123Z,0
2018-12-07T19:24:17.923Z,0
2018-12-07T19:25:18.787Z,0
2018-12-07T19:26:20.579Z,0
2018-12-07T19:27:21.490Z,0
2018-12-07T19:28:23.578Z,0
2018-12-07T19:29:24.238Z,0
2018-12-07T19:30:25.741Z,0
2018-12-07T19:31:26.162Z,0
2018-12-07T19:32:27.326Z,0
2018-12-07T19:33:28.498Z,0
2018-12-07T19:34:30.173Z,0
2018-12-07T19:35:30.056Z,0
2018-12-07T19:36:31.189Z,0
2018-12-07T19:37:32.726Z,0
2018-12-07T19:38:32.882Z,0
2018-12-07T19:39:34.515Z,0
2018-12-07T19:40:36.040Z,0
2018-12-07T19:41:36.280Z,0
2018-12-07T19:42:36.880Z,0
2018-12-07T19:43:38.093Z,0
2018-12-07T19:44:38.834Z,0
2018-12-07T19:45:38.257Z,0